sensor_id;sensor_type;location;lat;lon;timestamp;P1;durP1;ratioP1;P2;durP2;ratioP2
52072;SDS011;38074;51.232;6.826;2022-11-12T00:06:42;1.93;;;1.67;;
52072;SDS011;38074;51.232;6.826;2022-11-12T00:13:57;2.67;;;1.90;;
52072;SDS011;38074;51.232;6.826;2022-11-12T00:21:13;5.03;;;1.83;;
52072;SDS011;38074;51.232;6.826;2022-11-12T00:28:28;2.57;;;1.77;;
52072;SDS011;38074;51.232;6.826;2022-11-12T00:35:44;2.20;;;1.67;;
52072;SDS011;38074;51.232;6.826;2022-11-12T00:42:59;2.83;;;1.67;;
52072;SDS011;38074;51.232;6.826;2022-11-12T00:50:15;2.50;;;1.80;;
52072;SDS011;38074;51.232;6.826;2022-11-12T00:57:30;3.30;;;2.13;;
52072;SDS011;38074;51.232;6.826;2022-11-12T01:04:46;2.60;;;1.60;;
52072;SDS011;38074;51.232;6.826;2022-11-12T01:12:02;3.13;;;1.48;;
52072;SDS011;38074;51.232;6.826;2022-11-12T01:19:17;2.33;;;1.40;;
52072;SDS011;38074;51.232;6.826;2022-11-12T01:26:33;1.87;;;1.57;;
52072;SDS011;38074;51.232;6.826;2022-11-12T01:33:51;2.90;;;1.42;;
52072;SDS011;38074;51.232;6.826;2022-11-12T01:41:09;2.33;;;1.58;;
52072;SDS011;38074;51.232;6.826;2022-11-12T01:48:32;2.45;;;1.38;;
52072;SDS011;38074;51.232;6.826;2022-11-12T01:55:51;2.05;;;1.20;;
52072;SDS011;38074;51.232;6.826;2022-11-12T02:03:20;2.55;;;1.38;;
52072;SDS011;38074;51.232;6.826;2022-11-12T02:10:38;2.17;;;1.40;;
52072;SDS011;38074;51.232;6.826;2022-11-12T02:17:54;1.87;;;1.10;;
52072;SDS011;38074;51.232;6.826;2022-11-12T02:25:11;1.93;;;1.20;;
52072;SDS011;38074;51.232;6.826;2022-11-12T02:32:30;2.25;;;1.30;;
52072;SDS011;38074;51.232;6.826;2022-11-12T02:39:45;1.70;;;1.20;;
52072;SDS011;38074;51.232;6.826;2022-11-12T02:47:01;1.67;;;1.10;;
52072;SDS011;38074;51.232;6.826;2022-11-12T02:54:16;1.57;;;1.00;;
52072;SDS011;38074;51.232;6.826;2022-11-12T03:01:32;2.10;;;1.13;;
52072;SDS011;38074;51.232;6.826;2022-11-12T03:08:47;2.00;;;1.07;;
52072;SDS011;38074;51.232;6.826;2022-11-12T03:16:03;1.70;;;1.07;;
52072;SDS011;38074;51.232;6.826;2022-11-12T03:23:19;1.30;;;0.90;;
52072;SDS011;38074;51.232;6.826;2022-11-12T03:30:36;1.20;;;0.70;;
52072;SDS011;38074;51.232;6.826;2022-11-12T03:37:53;1.35;;;0.95;;
52072;SDS011;38074;51.232;6.826;2022-11-12T03:45:09;2.30;;;0.80;;
52072;SDS011;38074;51.232;6.826;2022-11-12T03:52:24;1.87;;;0.90;;
52072;SDS011;38074;51.232;6.826;2022-11-12T03:59:40;1.23;;;0.80;;
52072;SDS011;38074;51.232;6.826;2022-11-12T04:06:55;1.77;;;1.00;;
52072;SDS011;38074;51.232;6.826;2022-11-12T04:14:29;1.40;;;0.70;;
52072;SDS011;38074;51.232;6.826;2022-11-12T04:21:46;1.70;;;0.80;;
52072;SDS011;38074;51.232;6.826;2022-11-12T04:29:06;2.60;;;1.08;;
52072;SDS011;38074;51.232;6.826;2022-11-12T04:36:40;1.35;;;0.82;;
52072;SDS011;38074;51.232;6.826;2022-11-12T04:43:56;1.50;;;0.70;;
52072;SDS011;38074;51.232;6.826;2022-11-12T04:51:30;1.55;;;1.00;;
52072;SDS011;38074;51.232;6.826;2022-11-12T04:59:04;1.38;;;0.73;;
52072;SDS011;38074;51.232;6.826;2022-11-12T05:06:19;1.27;;;0.70;;
52072;SDS011;38074;51.232;6.826;2022-11-12T05:13:53;1.55;;;0.98;;
52072;SDS011;38074;51.232;6.826;2022-11-12T05:21:09;1.63;;;0.83;;
52072;SDS011;38074;51.232;6.826;2022-11-12T05:28:43;1.88;;;0.77;;
52072;SDS011;38074;51.232;6.826;2022-11-12T05:35:58;1.83;;;0.60;;
52072;SDS011;38074;51.232;6.826;2022-11-12T05:43:14;4.57;;;0.93;;
52072;SDS011;38074;51.232;6.826;2022-11-12T05:50:30;2.10;;;0.87;;
52072;SDS011;38074;51.232;6.826;2022-11-12T05:57:45;1.57;;;0.80;;
52072;SDS011;38074;51.232;6.826;2022-11-12T06:05:00;4.07;;;0.80;;
52072;SDS011;38074;51.232;6.826;2022-11-12T06:12:16;2.50;;;1.00;;
52072;SDS011;38074;51.232;6.826;2022-11-12T06:19:31;3.37;;;1.07;;
52072;SDS011;38074;51.232;6.826;2022-11-12T06:26:47;1.60;;;0.80;;
52072;SDS011;38074;51.232;6.826;2022-11-12T06:34:03;2.08;;;0.90;;
52072;SDS011;38074;51.232;6.826;2022-11-12T06:41:18;1.47;;;0.80;;
52072;SDS011;38074;51.232;6.826;2022-11-12T06:48:34;2.53;;;0.80;;
52072;SDS011;38074;51.232;6.826;2022-11-12T06:55:50;0.97;;;0.70;;
52072;SDS011;38074;51.232;6.826;2022-11-12T07:03:08;1.23;;;0.80;;
52072;SDS011;38074;51.232;6.826;2022-11-12T07:10:24;2.30;;;0.70;;
52072;SDS011;38074;51.232;6.826;2022-11-12T07:17:43;1.60;;;0.80;;
52072;SDS011;38074;51.232;6.826;2022-11-12T07:24:59;1.38;;;0.52;;
52072;SDS011;38074;51.232;6.826;2022-11-12T07:32:14;1.53;;;0.70;;
52072;SDS011;38074;51.232;6.826;2022-11-12T07:39:30;2.27;;;0.70;;
52072;SDS011;38074;51.232;6.826;2022-11-12T07:46:45;4.03;;;0.93;;
52072;SDS011;38074;51.232;6.826;2022-11-12T07:54:01;2.13;;;0.70;;
52072;SDS011;38074;51.232;6.826;2022-11-12T08:01:21;4.10;;;1.50;;
52072;SDS011;38074;51.232;6.826;2022-11-12T08:08:45;3.78;;;1.83;;
52072;SDS011;38074;51.232;6.826;2022-11-12T08:16:00;2.85;;;1.55;;
52072;SDS011;38074;51.232;6.826;2022-11-12T08:23:16;3.28;;;1.92;;
52072;SDS011;38074;51.232;6.826;2022-11-12T08:30:31;5.27;;;1.73;;
52072;SDS011;38074;51.232;6.826;2022-11-12T08:37:47;3.20;;;1.67;;
52072;SDS011;38074;51.232;6.826;2022-11-12T08:45:03;5.53;;;2.40;;
52072;SDS011;38074;51.232;6.826;2022-11-12T08:52:19;8.52;;;2.55;;
52072;SDS011;38074;51.232;6.826;2022-11-12T08:59:34;8.63;;;2.60;;
52072;SDS011;38074;51.232;6.826;2022-11-12T09:06:50;10.43;;;2.90;;
52072;SDS011;38074;51.232;6.826;2022-11-12T09:14:05;7.53;;;2.67;;
52072;SDS011;38074;51.232;6.826;2022-11-12T09:21:21;10.73;;;2.83;;
52072;SDS011;38074;51.232;6.826;2022-11-12T09:28:38;10.65;;;3.17;;
52072;SDS011;38074;51.232;6.826;2022-11-12T09:35:54;8.03;;;2.63;;
52072;SDS011;38074;51.232;6.826;2022-11-12T09:43:14;7.32;;;2.58;;
52072;SDS011;38074;51.232;6.826;2022-11-12T09:50:58;7.30;;;2.20;;
52072;SDS011;38074;51.232;6.826;2022-11-12T09:58:20;8.05;;;2.50;;
52072;SDS011;38074;51.232;6.826;2022-11-12T10:05:37;8.37;;;1.97;;
52072;SDS011;38074;51.232;6.826;2022-11-12T10:20:28;8.25;;;2.00;;
52072;SDS011;38074;51.232;6.826;2022-11-12T10:27:57;8.23;;;1.80;;
52072;SDS011;38074;51.232;6.826;2022-11-12T10:35:20;4.90;;;1.80;;
52072;SDS011;38074;51.232;6.826;2022-11-12T10:42:44;6.03;;;1.77;;
52072;SDS011;38074;51.232;6.826;2022-11-12T11:05:34;5.05;;;1.58;;
52072;SDS011;38074;51.232;6.826;2022-11-12T11:12:50;3.88;;;1.25;;
52072;SDS011;38074;51.232;6.826;2022-11-12T11:20:43;4.70;;;1.38;;
52072;SDS011;38074;51.232;6.826;2022-11-12T11:28:20;2.73;;;1.20;;
52072;SDS011;38074;51.232;6.826;2022-11-12T11:35:54;3.70;;;1.63;;
52072;SDS011;38074;51.232;6.826;2022-11-12T11:50:53;5.68;;;1.23;;
52072;SDS011;38074;51.232;6.826;2022-11-12T11:58:21;4.43;;;1.15;;
52072;SDS011;38074;51.232;6.826;2022-11-12T12:20:53;4.32;;;1.58;;
52072;SDS011;38074;51.232;6.826;2022-11-12T12:28:26;4.15;;;1.50;;
52072;SDS011;38074;51.232;6.826;2022-11-12T12:35:50;5.45;;;1.77;;
52072;SDS011;38074;51.232;6.826;2022-11-12T12:43:16;9.75;;;1.90;;
52072;SDS011;38074;51.232;6.826;2022-11-12T12:50:40;4.75;;;1.60;;
52072;SDS011;38074;51.232;6.826;2022-11-12T12:57:57;6.70;;;1.67;;
52072;SDS011;38074;51.232;6.826;2022-11-12T13:05:30;6.27;;;1.57;;
52072;SDS011;38074;51.232;6.826;2022-11-12T13:20:33;5.20;;;1.50;;
52072;SDS011;38074;51.232;6.826;2022-11-12T13:42:35;3.90;;;1.17;;
52072;SDS011;38074;51.232;6.826;2022-11-12T13:50:05;3.42;;;1.50;;
52072;SDS011;38074;51.232;6.826;2022-11-12T13:57:28;4.57;;;1.45;;
52072;SDS011;38074;51.232;6.826;2022-11-12T14:04:45;3.70;;;1.20;;
52072;SDS011;38074;51.232;6.826;2022-11-12T14:27:20;4.50;;;1.17;;
52072;SDS011;38074;51.232;6.826;2022-11-12T14:34:42;4.43;;;1.67;;
52072;SDS011;38074;51.232;6.826;2022-11-12T14:41:57;3.93;;;1.27;;
52072;SDS011;38074;51.232;6.826;2022-11-12T14:49:18;6.07;;;1.23;;
52072;SDS011;38074;51.232;6.826;2022-11-12T14:56:37;2.28;;;0.77;;
52072;SDS011;38074;51.232;6.826;2022-11-12T15:11:35;5.30;;;1.30;;
52072;SDS011;38074;51.232;6.826;2022-11-12T15:19:02;5.13;;;1.35;;
52072;SDS011;38074;51.232;6.826;2022-11-12T15:26:30;4.07;;;1.05;;
52072;SDS011;38074;51.232;6.826;2022-11-12T15:33:47;3.65;;;1.27;;
52072;SDS011;38074;51.232;6.826;2022-11-12T15:41:03;3.83;;;1.00;;
52072;SDS011;38074;51.232;6.826;2022-11-12T15:48:19;4.32;;;1.00;;
52072;SDS011;38074;51.232;6.826;2022-11-12T15:55:35;7.97;;;5.25;;
52072;SDS011;38074;51.232;6.826;2022-11-12T16:02:56;13.55;;;7.93;;
52072;SDS011;38074;51.232;6.826;2022-11-12T16:10:15;12.40;;;8.90;;
52072;SDS011;38074;51.232;6.826;2022-11-12T16:17:32;12.63;;;8.80;;
52072;SDS011;38074;51.232;6.826;2022-11-12T16:24:48;12.18;;;7.97;;
52072;SDS011;38074;51.232;6.826;2022-11-12T16:32:03;14.30;;;8.37;;
52072;SDS011;38074;51.232;6.826;2022-11-12T16:39:20;10.27;;;6.45;;
52072;SDS011;38074;51.232;6.826;2022-11-12T16:46:36;7.80;;;5.80;;
52072;SDS011;38074;51.232;6.826;2022-11-12T16:53:54;9.48;;;5.65;;
52072;SDS011;38074;51.232;6.826;2022-11-12T17:01:11;8.67;;;5.10;;
52072;SDS011;38074;51.232;6.826;2022-11-12T17:08:29;7.80;;;4.75;;
52072;SDS011;38074;51.232;6.826;2022-11-12T17:15:44;7.80;;;4.23;;
52072;SDS011;38074;51.232;6.826;2022-11-12T17:23:00;7.07;;;3.80;;
52072;SDS011;38074;51.232;6.826;2022-11-12T17:30:15;7.47;;;3.97;;
52072;SDS011;38074;51.232;6.826;2022-11-12T17:37:31;10.65;;;5.30;;
52072;SDS011;38074;51.232;6.826;2022-11-12T17:44:47;10.13;;;5.27;;
52072;SDS011;38074;51.232;6.826;2022-11-12T17:52:02;19.00;;;6.45;;
52072;SDS011;38074;51.232;6.826;2022-11-12T17:59:18;8.73;;;5.17;;
52072;SDS011;38074;51.232;6.826;2022-11-12T18:06:33;9.20;;;5.33;;
52072;SDS011;38074;51.232;6.826;2022-11-12T18:13:49;7.40;;;4.23;;
52072;SDS011;38074;51.232;6.826;2022-11-12T18:21:05;9.53;;;4.93;;
52072;SDS011;38074;51.232;6.826;2022-11-12T18:28:20;6.20;;;4.23;;
52072;SDS011;38074;51.232;6.826;2022-11-12T18:35:36;7.43;;;4.03;;
52072;SDS011;38074;51.232;6.826;2022-11-12T18:42:52;11.50;;;4.23;;
52072;SDS011;38074;51.232;6.826;2022-11-12T18:50:07;9.85;;;4.22;;
52072;SDS011;38074;51.232;6.826;2022-11-12T18:57:23;7.28;;;4.10;;
52072;SDS011;38074;51.232;6.826;2022-11-12T19:04:38;7.65;;;4.07;;
52072;SDS011;38074;51.232;6.826;2022-11-12T19:11:54;5.77;;;3.83;;
52072;SDS011;38074;51.232;6.826;2022-11-12T19:19:10;9.03;;;4.30;;
52072;SDS011;38074;51.232;6.826;2022-11-12T19:26:26;8.87;;;3.47;;
52072;SDS011;38074;51.232;6.826;2022-11-12T19:33:43;6.93;;;3.40;;
52072;SDS011;38074;51.232;6.826;2022-11-12T19:41:17;8.95;;;4.88;;
52072;SDS011;38074;51.232;6.826;2022-11-12T19:48:32;8.55;;;4.10;;
52072;SDS011;38074;51.232;6.826;2022-11-12T19:55:49;8.30;;;4.03;;
52072;SDS011;38074;51.232;6.826;2022-11-12T20:03:05;7.03;;;4.37;;
52072;SDS011;38074;51.232;6.826;2022-11-12T20:10:20;7.25;;;3.97;;
52072;SDS011;38074;51.232;6.826;2022-11-12T20:17:36;6.28;;;3.85;;
52072;SDS011;38074;51.232;6.826;2022-11-12T20:24:53;8.47;;;4.07;;
52072;SDS011;38074;51.232;6.826;2022-11-12T20:32:08;8.10;;;3.73;;
52072;SDS011;38074;51.232;6.826;2022-11-12T20:39:24;8.73;;;3.37;;
52072;SDS011;38074;51.232;6.826;2022-11-12T20:46:39;6.20;;;3.73;;
52072;SDS011;38074;51.232;6.826;2022-11-12T20:53:55;10.83;;;3.87;;
52072;SDS011;38074;51.232;6.826;2022-11-12T21:01:12;7.13;;;4.00;;
52072;SDS011;38074;51.232;6.826;2022-11-12T21:08:30;6.65;;;3.30;;
52072;SDS011;38074;51.232;6.826;2022-11-12T21:15:48;7.85;;;3.70;;
52072;SDS011;38074;51.232;6.826;2022-11-12T21:23:04;5.50;;;3.65;;
52072;SDS011;38074;51.232;6.826;2022-11-12T21:30:19;7.07;;;3.80;;
52072;SDS011;38074;51.232;6.826;2022-11-12T21:37:35;8.17;;;4.10;;
52072;SDS011;38074;51.232;6.826;2022-11-12T21:44:51;6.30;;;3.90;;
52072;SDS011;38074;51.232;6.826;2022-11-12T21:52:06;5.67;;;3.73;;
52072;SDS011;38074;51.232;6.826;2022-11-12T21:59:23;5.60;;;3.40;;
52072;SDS011;38074;51.232;6.826;2022-11-12T22:06:38;7.60;;;3.97;;
52072;SDS011;38074;51.232;6.826;2022-11-12T22:13:55;9.90;;;4.05;;
52072;SDS011;38074;51.232;6.826;2022-11-12T22:21:11;5.93;;;3.30;;
52072;SDS011;38074;51.232;6.826;2022-11-12T22:28:29;6.55;;;3.83;;
52072;SDS011;38074;51.232;6.826;2022-11-12T22:35:44;6.63;;;4.50;;
52072;SDS011;38074;51.232;6.826;2022-11-12T22:43:00;4.97;;;3.80;;
52072;SDS011;38074;51.232;6.826;2022-11-12T22:50:15;9.02;;;4.40;;
52072;SDS011;38074;51.232;6.826;2022-11-12T22:57:31;5.20;;;3.72;;
52072;SDS011;38074;51.232;6.826;2022-11-12T23:04:46;5.80;;;4.03;;
52072;SDS011;38074;51.232;6.826;2022-11-12T23:12:02;4.65;;;3.80;;
52072;SDS011;38074;51.232;6.826;2022-11-12T23:19:18;5.20;;;3.42;;
52072;SDS011;38074;51.232;6.826;2022-11-12T23:26:33;5.03;;;3.30;;
52072;SDS011;38074;51.232;6.826;2022-11-12T23:33:50;4.72;;;3.53;;
52072;SDS011;38074;51.232;6.826;2022-11-12T23:41:08;4.65;;;3.28;;
52072;SDS011;38074;51.232;6.826;2022-11-12T23:48:25;3.90;;;2.97;;
52072;SDS011;38074;51.232;6.826;2022-11-12T23:55:41;4.15;;;3.08;;
